sensor_id;sensor_type;location;lat;lon;timestamp;P1;durP1;ratioP1;P2;durP2;ratioP2
51836;SDS011;38941;53.254;6.600;2024-03-17T00:01:02;12.35;;;3.47;;
51836;SDS011;38941;53.254;6.600;2024-03-17T00:03:03;20.02;;;5.22;;
51836;SDS011;38941;53.254;6.600;2024-03-17T00:05:04;6.80;;;3.10;;
51836;SDS011;38941;53.254;6.600;2024-03-17T00:07:06;18.27;;;4.35;;
51836;SDS011;38941;53.254;6.600;2024-03-17T00:09:06;12.38;;;3.90;;
51836;SDS011;38941;53.254;6.600;2024-03-17T00:11:09;10.73;;;3.72;;
51836;SDS011;38941;53.254;6.600;2024-03-17T00:13:10;18.50;;;4.13;;
51836;SDS011;38941;53.254;6.600;2024-03-17T00:15:10;12.25;;;4.72;;
51836;SDS011;38941;53.254;6.600;2024-03-17T00:17:12;9.15;;;3.38;;
51836;SDS011;38941;53.254;6.600;2024-03-17T00:19:13;11.77;;;3.20;;
51836;SDS011;38941;53.254;6.600;2024-03-17T00:21:14;12.07;;;3.42;;
51836;SDS011;38941;53.254;6.600;2024-03-17T00:23:15;12.40;;;3.53;;
51836;SDS011;38941;53.254;6.600;2024-03-17T00:25:16;15.88;;;4.35;;
51836;SDS011;38941;53.254;6.600;2024-03-17T00:27:17;13.82;;;3.45;;
51836;SDS011;38941;53.254;6.600;2024-03-17T00:29:18;9.02;;;3.35;;
51836;SDS011;38941;53.254;6.600;2024-03-17T00:31:18;12.10;;;3.88;;
51836;SDS011;38941;53.254;6.600;2024-03-17T00:33:20;11.85;;;3.03;;
51836;SDS011;38941;53.254;6.600;2024-03-17T00:35:21;10.48;;;3.20;;
51836;SDS011;38941;53.254;6.600;2024-03-17T00:37:22;9.52;;;4.78;;
51836;SDS011;38941;53.254;6.600;2024-03-17T00:39:23;12.75;;;3.55;;
51836;SDS011;38941;53.254;6.600;2024-03-17T00:41:23;9.88;;;2.80;;
51836;SDS011;38941;53.254;6.600;2024-03-17T00:43:25;8.98;;;3.85;;
51836;SDS011;38941;53.254;6.600;2024-03-17T00:45:26;10.82;;;3.75;;
51836;SDS011;38941;53.254;6.600;2024-03-17T00:47:27;9.23;;;3.75;;
51836;SDS011;38941;53.254;6.600;2024-03-17T00:49:27;11.05;;;3.80;;
51836;SDS011;38941;53.254;6.600;2024-03-17T00:51:29;11.95;;;3.03;;
51836;SDS011;38941;53.254;6.600;2024-03-17T00:53:30;10.63;;;3.50;;
51836;SDS011;38941;53.254;6.600;2024-03-17T00:55:31;9.65;;;2.70;;
51836;SDS011;38941;53.254;6.600;2024-03-17T00:57:31;7.97;;;2.65;;
51836;SDS011;38941;53.254;6.600;2024-03-17T00:59:33;9.07;;;2.78;;
51836;SDS011;38941;53.254;6.600;2024-03-17T01:01:34;7.93;;;3.13;;
51836;SDS011;38941;53.254;6.600;2024-03-17T01:03:36;12.57;;;3.65;;
51836;SDS011;38941;53.254;6.600;2024-03-17T01:05:38;12.15;;;4.15;;
51836;SDS011;38941;53.254;6.600;2024-03-17T01:07:42;9.35;;;2.63;;
51836;SDS011;38941;53.254;6.600;2024-03-17T01:09:43;15.32;;;3.90;;
51836;SDS011;38941;53.254;6.600;2024-03-17T01:11:46;8.68;;;2.95;;
51836;SDS011;38941;53.254;6.600;2024-03-17T01:13:53;8.50;;;3.40;;
51836;SDS011;38941;53.254;6.600;2024-03-17T01:15:54;9.80;;;3.05;;
51836;SDS011;38941;53.254;6.600;2024-03-17T01:17:55;13.05;;;3.25;;
51836;SDS011;38941;53.254;6.600;2024-03-17T01:19:56;11.50;;;3.03;;
51836;SDS011;38941;53.254;6.600;2024-03-17T01:21:59;10.77;;;3.58;;
51836;SDS011;38941;53.254;6.600;2024-03-17T01:24:01;13.57;;;3.17;;
51836;SDS011;38941;53.254;6.600;2024-03-17T01:26:01;9.57;;;3.20;;
51836;SDS011;38941;53.254;6.600;2024-03-17T01:28:05;9.05;;;2.92;;
51836;SDS011;38941;53.254;6.600;2024-03-17T01:30:06;11.00;;;3.33;;
51836;SDS011;38941;53.254;6.600;2024-03-17T01:32:09;9.20;;;3.53;;
51836;SDS011;38941;53.254;6.600;2024-03-17T01:34:13;10.77;;;4.20;;
51836;SDS011;38941;53.254;6.600;2024-03-17T01:36:14;9.15;;;3.33;;
51836;SDS011;38941;53.254;6.600;2024-03-17T01:38:14;14.15;;;3.47;;
51836;SDS011;38941;53.254;6.600;2024-03-17T01:40:15;9.52;;;3.22;;
51836;SDS011;38941;53.254;6.600;2024-03-17T01:42:17;9.27;;;3.30;;
51836;SDS011;38941;53.254;6.600;2024-03-17T01:44:21;10.25;;;2.95;;
51836;SDS011;38941;53.254;6.600;2024-03-17T01:46:29;13.30;;;3.20;;
51836;SDS011;38941;53.254;6.600;2024-03-17T01:48:30;11.02;;;3.20;;
51836;SDS011;38941;53.254;6.600;2024-03-17T01:50:35;8.25;;;2.90;;
51836;SDS011;38941;53.254;6.600;2024-03-17T01:52:36;12.95;;;3.38;;
51836;SDS011;38941;53.254;6.600;2024-03-17T01:54:37;14.52;;;3.15;;
51836;SDS011;38941;53.254;6.600;2024-03-17T01:56:39;7.85;;;3.30;;
51836;SDS011;38941;53.254;6.600;2024-03-17T01:58:40;12.70;;;4.10;;
51836;SDS011;38941;53.254;6.600;2024-03-17T02:00:44;7.30;;;3.22;;
51836;SDS011;38941;53.254;6.600;2024-03-17T02:02:45;5.47;;;2.55;;
51836;SDS011;38941;53.254;6.600;2024-03-17T02:04:47;7.10;;;2.55;;
51836;SDS011;38941;53.254;6.600;2024-03-17T02:06:49;6.97;;;2.63;;
51836;SDS011;38941;53.254;6.600;2024-03-17T02:08:50;8.32;;;2.70;;
51836;SDS011;38941;53.254;6.600;2024-03-17T02:10:52;12.77;;;3.78;;
51836;SDS011;38941;53.254;6.600;2024-03-17T02:12:56;10.00;;;2.50;;
51836;SDS011;38941;53.254;6.600;2024-03-17T02:15:01;7.82;;;2.50;;
51836;SDS011;38941;53.254;6.600;2024-03-17T02:17:05;3.97;;;1.98;;
51836;SDS011;38941;53.254;6.600;2024-03-17T02:19:07;5.05;;;2.10;;
51836;SDS011;38941;53.254;6.600;2024-03-17T02:21:07;6.30;;;2.17;;
51836;SDS011;38941;53.254;6.600;2024-03-17T02:23:09;6.55;;;2.60;;
51836;SDS011;38941;53.254;6.600;2024-03-17T02:25:10;5.28;;;1.98;;
51836;SDS011;38941;53.254;6.600;2024-03-17T02:27:11;6.25;;;3.10;;
51836;SDS011;38941;53.254;6.600;2024-03-17T02:29:11;6.15;;;2.65;;
51836;SDS011;38941;53.254;6.600;2024-03-17T02:31:12;11.13;;;3.47;;
51836;SDS011;38941;53.254;6.600;2024-03-17T02:33:15;9.82;;;2.40;;
51836;SDS011;38941;53.254;6.600;2024-03-17T02:35:17;6.43;;;2.95;;
51836;SDS011;38941;53.254;6.600;2024-03-17T02:37:18;11.75;;;3.10;;
51836;SDS011;38941;53.254;6.600;2024-03-17T02:39:18;6.03;;;3.03;;
51836;SDS011;38941;53.254;6.600;2024-03-17T02:41:34;5.43;;;2.75;;
51836;SDS011;38941;53.254;6.600;2024-03-17T02:43:35;7.38;;;3.20;;
51836;SDS011;38941;53.254;6.600;2024-03-17T02:45:36;7.70;;;3.50;;
51836;SDS011;38941;53.254;6.600;2024-03-17T02:47:37;7.03;;;2.95;;
51836;SDS011;38941;53.254;6.600;2024-03-17T02:49:39;6.70;;;2.63;;
51836;SDS011;38941;53.254;6.600;2024-03-17T02:51:43;7.30;;;2.35;;
51836;SDS011;38941;53.254;6.600;2024-03-17T02:53:44;6.97;;;2.20;;
51836;SDS011;38941;53.254;6.600;2024-03-17T02:55:46;12.43;;;4.32;;
51836;SDS011;38941;53.254;6.600;2024-03-17T02:57:46;7.05;;;2.55;;
51836;SDS011;38941;53.254;6.600;2024-03-17T02:59:47;5.35;;;2.55;;
51836;SDS011;38941;53.254;6.600;2024-03-17T03:01:48;8.52;;;3.00;;
51836;SDS011;38941;53.254;6.600;2024-03-17T03:03:50;9.20;;;2.67;;
51836;SDS011;38941;53.254;6.600;2024-03-17T03:05:50;5.18;;;2.88;;
51836;SDS011;38941;53.254;6.600;2024-03-17T03:07:54;5.25;;;2.22;;
51836;SDS011;38941;53.254;6.600;2024-03-17T03:09:55;4.88;;;2.38;;
51836;SDS011;38941;53.254;6.600;2024-03-17T03:11:57;11.73;;;2.92;;
51836;SDS011;38941;53.254;6.600;2024-03-17T03:14:05;5.25;;;2.65;;
51836;SDS011;38941;53.254;6.600;2024-03-17T03:16:07;9.98;;;2.85;;
51836;SDS011;38941;53.254;6.600;2024-03-17T03:18:12;6.05;;;2.33;;
51836;SDS011;38941;53.254;6.600;2024-03-17T03:20:15;7.00;;;3.00;;
51836;SDS011;38941;53.254;6.600;2024-03-17T03:22:16;7.82;;;2.78;;
51836;SDS011;38941;53.254;6.600;2024-03-17T03:24:17;5.43;;;3.10;;
51836;SDS011;38941;53.254;6.600;2024-03-17T03:26:18;9.45;;;3.03;;
51836;SDS011;38941;53.254;6.600;2024-03-17T03:28:19;6.82;;;2.60;;
51836;SDS011;38941;53.254;6.600;2024-03-17T03:30:21;8.55;;;2.65;;
51836;SDS011;38941;53.254;6.600;2024-03-17T03:32:23;7.65;;;2.97;;
51836;SDS011;38941;53.254;6.600;2024-03-17T03:34:23;9.18;;;2.55;;
51836;SDS011;38941;53.254;6.600;2024-03-17T03:36:24;9.57;;;3.50;;
51836;SDS011;38941;53.254;6.600;2024-03-17T03:38:26;7.88;;;2.63;;
51836;SDS011;38941;53.254;6.600;2024-03-17T03:40:28;4.85;;;2.70;;
51836;SDS011;38941;53.254;6.600;2024-03-17T03:42:31;11.68;;;2.72;;
51836;SDS011;38941;53.254;6.600;2024-03-17T03:44:32;11.10;;;2.80;;
51836;SDS011;38941;53.254;6.600;2024-03-17T03:46:33;7.13;;;2.58;;
51836;SDS011;38941;53.254;6.600;2024-03-17T03:48:34;12.93;;;3.10;;
51836;SDS011;38941;53.254;6.600;2024-03-17T03:50:35;7.32;;;2.88;;
51836;SDS011;38941;53.254;6.600;2024-03-17T03:52:37;9.20;;;3.13;;
51836;SDS011;38941;53.254;6.600;2024-03-17T03:54:40;8.80;;;2.53;;
51836;SDS011;38941;53.254;6.600;2024-03-17T03:56:43;8.18;;;2.58;;
51836;SDS011;38941;53.254;6.600;2024-03-17T03:58:45;8.57;;;2.40;;
51836;SDS011;38941;53.254;6.600;2024-03-17T04:00:49;9.02;;;2.70;;
51836;SDS011;38941;53.254;6.600;2024-03-17T04:02:51;5.43;;;2.20;;
51836;SDS011;38941;53.254;6.600;2024-03-17T04:04:52;7.70;;;2.95;;
51836;SDS011;38941;53.254;6.600;2024-03-17T04:06:53;6.07;;;2.50;;
51836;SDS011;38941;53.254;6.600;2024-03-17T04:08:54;5.68;;;1.98;;
51836;SDS011;38941;53.254;6.600;2024-03-17T04:10:55;9.05;;;2.50;;
51836;SDS011;38941;53.254;6.600;2024-03-17T04:12:56;7.15;;;2.20;;
51836;SDS011;38941;53.254;6.600;2024-03-17T04:14:57;4.32;;;2.08;;
51836;SDS011;38941;53.254;6.600;2024-03-17T04:16:59;7.68;;;2.28;;
51836;SDS011;38941;53.254;6.600;2024-03-17T04:18:59;5.20;;;2.00;;
51836;SDS011;38941;53.254;6.600;2024-03-17T04:21:03;8.40;;;2.25;;
51836;SDS011;38941;53.254;6.600;2024-03-17T04:25:11;5.13;;;1.92;;
51836;SDS011;38941;53.254;6.600;2024-03-17T04:27:14;4.78;;;2.20;;
51836;SDS011;38941;53.254;6.600;2024-03-17T04:29:15;6.22;;;1.88;;
51836;SDS011;38941;53.254;6.600;2024-03-17T04:31:15;6.95;;;2.10;;
51836;SDS011;38941;53.254;6.600;2024-03-17T04:33:18;8.35;;;2.63;;
51836;SDS011;38941;53.254;6.600;2024-03-17T04:35:19;2.40;;;1.40;;
51836;SDS011;38941;53.254;6.600;2024-03-17T04:37:20;7.22;;;2.42;;
51836;SDS011;38941;53.254;6.600;2024-03-17T04:39:20;4.40;;;1.70;;
51836;SDS011;38941;53.254;6.600;2024-03-17T04:41:21;6.30;;;1.92;;
51836;SDS011;38941;53.254;6.600;2024-03-17T04:43:28;4.72;;;1.80;;
51836;SDS011;38941;53.254;6.600;2024-03-17T04:45:30;5.15;;;2.03;;
51836;SDS011;38941;53.254;6.600;2024-03-17T04:47:30;6.85;;;1.90;;
51836;SDS011;38941;53.254;6.600;2024-03-17T04:49:39;4.75;;;1.60;;
51836;SDS011;38941;53.254;6.600;2024-03-17T04:51:41;3.75;;;1.63;;
51836;SDS011;38941;53.254;6.600;2024-03-17T04:53:42;7.18;;;1.67;;
51836;SDS011;38941;53.254;6.600;2024-03-17T04:55:43;3.35;;;1.98;;
51836;SDS011;38941;53.254;6.600;2024-03-17T04:57:46;5.38;;;1.85;;
51836;SDS011;38941;53.254;6.600;2024-03-17T04:59:48;9.75;;;1.95;;
51836;SDS011;38941;53.254;6.600;2024-03-17T05:01:51;3.78;;;1.90;;
51836;SDS011;38941;53.254;6.600;2024-03-17T05:03:55;5.03;;;1.70;;
51836;SDS011;38941;53.254;6.600;2024-03-17T05:05:59;6.60;;;2.15;;
51836;SDS011;38941;53.254;6.600;2024-03-17T05:08:02;7.15;;;2.00;;
51836;SDS011;38941;53.254;6.600;2024-03-17T05:10:03;6.07;;;1.90;;
51836;SDS011;38941;53.254;6.600;2024-03-17T05:12:05;7.93;;;1.90;;
51836;SDS011;38941;53.254;6.600;2024-03-17T05:14:09;5.72;;;1.50;;
51836;SDS011;38941;53.254;6.600;2024-03-17T05:16:10;9.40;;;2.00;;
51836;SDS011;38941;53.254;6.600;2024-03-17T05:18:10;5.10;;;2.45;;
51836;SDS011;38941;53.254;6.600;2024-03-17T05:20:11;8.82;;;2.58;;
51836;SDS011;38941;53.254;6.600;2024-03-17T05:22:13;6.50;;;2.33;;
51836;SDS011;38941;53.254;6.600;2024-03-17T05:24:14;5.38;;;1.90;;
51836;SDS011;38941;53.254;6.600;2024-03-17T05:26:15;5.95;;;2.35;;
51836;SDS011;38941;53.254;6.600;2024-03-17T05:28:16;7.60;;;2.42;;
51836;SDS011;38941;53.254;6.600;2024-03-17T05:30:18;8.40;;;1.98;;
51836;SDS011;38941;53.254;6.600;2024-03-17T05:32:19;6.13;;;2.08;;
51836;SDS011;38941;53.254;6.600;2024-03-17T05:34:20;8.05;;;2.53;;
51836;SDS011;38941;53.254;6.600;2024-03-17T05:36:21;4.75;;;1.90;;
51836;SDS011;38941;53.254;6.600;2024-03-17T05:38:23;7.93;;;2.90;;
51836;SDS011;38941;53.254;6.600;2024-03-17T05:40:24;6.97;;;1.67;;
51836;SDS011;38941;53.254;6.600;2024-03-17T05:42:25;5.90;;;2.72;;
51836;SDS011;38941;53.254;6.600;2024-03-17T05:44:26;6.22;;;2.00;;
51836;SDS011;38941;53.254;6.600;2024-03-17T05:46:29;8.48;;;2.92;;
51836;SDS011;38941;53.254;6.600;2024-03-17T05:48:30;7.38;;;2.22;;
51836;SDS011;38941;53.254;6.600;2024-03-17T05:50:32;5.95;;;2.03;;
51836;SDS011;38941;53.254;6.600;2024-03-17T05:52:33;5.30;;;1.80;;
51836;SDS011;38941;53.254;6.600;2024-03-17T05:54:34;7.80;;;2.20;;
51836;SDS011;38941;53.254;6.600;2024-03-17T05:56:35;9.55;;;2.13;;
51836;SDS011;38941;53.254;6.600;2024-03-17T05:58:37;9.18;;;2.20;;
51836;SDS011;38941;53.254;6.600;2024-03-17T06:00:40;6.20;;;2.00;;
51836;SDS011;38941;53.254;6.600;2024-03-17T06:02:41;6.32;;;2.22;;
51836;SDS011;38941;53.254;6.600;2024-03-17T06:04:42;11.05;;;2.60;;
51836;SDS011;38941;53.254;6.600;2024-03-17T06:06:43;7.85;;;2.53;;
51836;SDS011;38941;53.254;6.600;2024-03-17T06:08:44;8.45;;;2.22;;
51836;SDS011;38941;53.254;6.600;2024-03-17T06:10:46;14.90;;;3.38;;
51836;SDS011;38941;53.254;6.600;2024-03-17T06:12:47;6.95;;;2.58;;
51836;SDS011;38941;53.254;6.600;2024-03-17T06:14:49;11.90;;;2.90;;
51836;SDS011;38941;53.254;6.600;2024-03-17T06:16:51;10.43;;;2.88;;
51836;SDS011;38941;53.254;6.600;2024-03-17T06:18:52;10.25;;;4.13;;
51836;SDS011;38941;53.254;6.600;2024-03-17T06:20:53;8.95;;;3.30;;
51836;SDS011;38941;53.254;6.600;2024-03-17T06:22:59;5.88;;;2.80;;
51836;SDS011;38941;53.254;6.600;2024-03-17T06:25:01;17.05;;;3.33;;
51836;SDS011;38941;53.254;6.600;2024-03-17T06:27:02;11.77;;;3.22;;
51836;SDS011;38941;53.254;6.600;2024-03-17T06:29:05;8.00;;;2.75;;
51836;SDS011;38941;53.254;6.600;2024-03-17T06:31:07;11.65;;;3.10;;
51836;SDS011;38941;53.254;6.600;2024-03-17T06:33:11;11.48;;;3.42;;
51836;SDS011;38941;53.254;6.600;2024-03-17T06:35:12;11.63;;;3.85;;
51836;SDS011;38941;53.254;6.600;2024-03-17T06:37:19;9.85;;;3.53;;
51836;SDS011;38941;53.254;6.600;2024-03-17T06:39:20;5.53;;;2.80;;
51836;SDS011;38941;53.254;6.600;2024-03-17T06:41:21;9.73;;;2.78;;
51836;SDS011;38941;53.254;6.600;2024-03-17T06:43:23;15.75;;;3.35;;
51836;SDS011;38941;53.254;6.600;2024-03-17T06:45:24;11.90;;;3.47;;
51836;SDS011;38941;53.254;6.600;2024-03-17T06:47:25;11.27;;;3.65;;
51836;SDS011;38941;53.254;6.600;2024-03-17T06:49:25;6.82;;;2.92;;
51836;SDS011;38941;53.254;6.600;2024-03-17T06:51:26;7.88;;;2.83;;
51836;SDS011;38941;53.254;6.600;2024-03-17T06:53:28;11.63;;;4.07;;
51836;SDS011;38941;53.254;6.600;2024-03-17T06:55:29;10.57;;;2.80;;
51836;SDS011;38941;53.254;6.600;2024-03-17T06:57:30;10.23;;;2.95;;
51836;SDS011;38941;53.254;6.600;2024-03-17T06:59:33;9.75;;;3.20;;
51836;SDS011;38941;53.254;6.600;2024-03-17T07:01:34;10.55;;;3.63;;
51836;SDS011;38941;53.254;6.600;2024-03-17T07:03:35;14.02;;;3.88;;
51836;SDS011;38941;53.254;6.600;2024-03-17T07:05:36;6.82;;;2.40;;
51836;SDS011;38941;53.254;6.600;2024-03-17T07:07:37;16.15;;;3.72;;
51836;SDS011;38941;53.254;6.600;2024-03-17T07:09:38;6.57;;;2.95;;
51836;SDS011;38941;53.254;6.600;2024-03-17T07:11:42;11.68;;;3.03;;
51836;SDS011;38941;53.254;6.600;2024-03-17T07:13:43;10.15;;;2.67;;
51836;SDS011;38941;53.254;6.600;2024-03-17T07:15:48;13.02;;;3.25;;
51836;SDS011;38941;53.254;6.600;2024-03-17T07:17:50;8.95;;;2.78;;
51836;SDS011;38941;53.254;6.600;2024-03-17T07:19:52;9.30;;;2.88;;
51836;SDS011;38941;53.254;6.600;2024-03-17T07:21:53;8.40;;;2.70;;
51836;SDS011;38941;53.254;6.600;2024-03-17T07:23:54;10.68;;;3.50;;
51836;SDS011;38941;53.254;6.600;2024-03-17T07:25:56;10.32;;;2.72;;
51836;SDS011;38941;53.254;6.600;2024-03-17T07:27:58;5.82;;;2.47;;
51836;SDS011;38941;53.254;6.600;2024-03-17T07:29:58;4.68;;;2.33;;
51836;SDS011;38941;53.254;6.600;2024-03-17T07:32:00;12.55;;;3.13;;
51836;SDS011;38941;53.254;6.600;2024-03-17T07:34:03;11.57;;;3.15;;
51836;SDS011;38941;53.254;6.600;2024-03-17T07:36:03;10.05;;;2.45;;
51836;SDS011;38941;53.254;6.600;2024-03-17T07:38:05;11.10;;;2.78;;
51836;SDS011;38941;53.254;6.600;2024-03-17T07:40:06;9.75;;;2.10;;
51836;SDS011;38941;53.254;6.600;2024-03-17T07:42:07;7.10;;;2.42;;
51836;SDS011;38941;53.254;6.600;2024-03-17T07:44:08;7.13;;;3.03;;
51836;SDS011;38941;53.254;6.600;2024-03-17T07:46:11;10.95;;;2.75;;
51836;SDS011;38941;53.254;6.600;2024-03-17T07:48:13;5.68;;;2.10;;
51836;SDS011;38941;53.254;6.600;2024-03-17T07:50:13;9.10;;;2.47;;
51836;SDS011;38941;53.254;6.600;2024-03-17T07:52:14;5.78;;;2.67;;
51836;SDS011;38941;53.254;6.600;2024-03-17T07:54:15;11.85;;;3.25;;
51836;SDS011;38941;53.254;6.600;2024-03-17T07:56:16;8.73;;;3.15;;
51836;SDS011;38941;53.254;6.600;2024-03-17T07:58:17;10.48;;;2.88;;
51836;SDS011;38941;53.254;6.600;2024-03-17T08:00:18;10.23;;;3.03;;
51836;SDS011;38941;53.254;6.600;2024-03-17T08:02:20;9.90;;;2.75;;
51836;SDS011;38941;53.254;6.600;2024-03-17T08:04:20;10.05;;;3.15;;
51836;SDS011;38941;53.254;6.600;2024-03-17T08:06:21;10.25;;;2.70;;
51836;SDS011;38941;53.254;6.600;2024-03-17T08:08:22;8.55;;;2.30;;
51836;SDS011;38941;53.254;6.600;2024-03-17T08:10:24;10.73;;;2.13;;
51836;SDS011;38941;53.254;6.600;2024-03-17T08:12:25;7.50;;;1.50;;
51836;SDS011;38941;53.254;6.600;2024-03-17T08:14:28;12.15;;;2.40;;
51836;SDS011;38941;53.254;6.600;2024-03-17T08:16:30;5.85;;;2.47;;
51836;SDS011;38941;53.254;6.600;2024-03-17T08:18:31;17.10;;;2.88;;
51836;SDS011;38941;53.254;6.600;2024-03-17T08:20:35;13.32;;;2.10;;
51836;SDS011;38941;53.254;6.600;2024-03-17T08:22:37;5.93;;;1.70;;
51836;SDS011;38941;53.254;6.600;2024-03-17T08:24:38;12.20;;;2.42;;
51836;SDS011;38941;53.254;6.600;2024-03-17T08:26:39;7.18;;;1.83;;
51836;SDS011;38941;53.254;6.600;2024-03-17T08:28:40;4.10;;;1.40;;
51836;SDS011;38941;53.254;6.600;2024-03-17T08:30:41;9.77;;;2.10;;
51836;SDS011;38941;53.254;6.600;2024-03-17T08:32:42;8.15;;;1.90;;
51836;SDS011;38941;53.254;6.600;2024-03-17T08:34:46;9.85;;;1.85;;
51836;SDS011;38941;53.254;6.600;2024-03-17T08:36:48;10.43;;;2.03;;
51836;SDS011;38941;53.254;6.600;2024-03-17T08:38:49;6.03;;;1.50;;
51836;SDS011;38941;53.254;6.600;2024-03-17T08:40:51;11.13;;;1.75;;
51836;SDS011;38941;53.254;6.600;2024-03-17T08:42:52;21.75;;;2.08;;
51836;SDS011;38941;53.254;6.600;2024-03-17T08:44:54;9.43;;;2.67;;
51836;SDS011;38941;53.254;6.600;2024-03-17T08:46:54;8.43;;;1.73;;
51836;SDS011;38941;53.254;6.600;2024-03-17T08:48:57;4.45;;;1.50;;
51836;SDS011;38941;53.254;6.600;2024-03-17T08:50:58;5.00;;;1.52;;
51836;SDS011;38941;53.254;6.600;2024-03-17T08:53:00;9.00;;;1.40;;
51836;SDS011;38941;53.254;6.600;2024-03-17T08:55:01;9.10;;;1.67;;
51836;SDS011;38941;53.254;6.600;2024-03-17T08:57:10;11.25;;;2.75;;
51836;SDS011;38941;53.254;6.600;2024-03-17T08:59:10;4.90;;;1.70;;
51836;SDS011;38941;53.254;6.600;2024-03-17T09:01:14;8.30;;;1.85;;
51836;SDS011;38941;53.254;6.600;2024-03-17T09:03:17;9.65;;;2.20;;
51836;SDS011;38941;53.254;6.600;2024-03-17T09:05:18;12.63;;;3.50;;
51836;SDS011;38941;53.254;6.600;2024-03-17T09:07:19;5.03;;;2.10;;
51836;SDS011;38941;53.254;6.600;2024-03-17T09:09:20;6.00;;;2.38;;
51836;SDS011;38941;53.254;6.600;2024-03-17T09:11:21;5.07;;;2.20;;
51836;SDS011;38941;53.254;6.600;2024-03-17T09:13:27;9.18;;;2.00;;
51836;SDS011;38941;53.254;6.600;2024-03-17T09:15:28;9.18;;;1.92;;
51836;SDS011;38941;53.254;6.600;2024-03-17T09:17:29;8.32;;;1.83;;
51836;SDS011;38941;53.254;6.600;2024-03-17T09:19:30;4.32;;;1.70;;
51836;SDS011;38941;53.254;6.600;2024-03-17T09:21:30;7.38;;;2.08;;
51836;SDS011;38941;53.254;6.600;2024-03-17T09:23:31;9.40;;;2.28;;
51836;SDS011;38941;53.254;6.600;2024-03-17T09:25:34;9.38;;;2.05;;
51836;SDS011;38941;53.254;6.600;2024-03-17T09:27:35;6.55;;;1.98;;
51836;SDS011;38941;53.254;6.600;2024-03-17T09:29:39;5.85;;;2.28;;
51836;SDS011;38941;53.254;6.600;2024-03-17T09:31:39;8.68;;;2.50;;
51836;SDS011;38941;53.254;6.600;2024-03-17T09:33:41;9.90;;;2.53;;
51836;SDS011;38941;53.254;6.600;2024-03-17T09:35:42;7.45;;;2.05;;
51836;SDS011;38941;53.254;6.600;2024-03-17T09:37:42;10.15;;;3.08;;
51836;SDS011;38941;53.254;6.600;2024-03-17T09:39:46;11.80;;;2.50;;
51836;SDS011;38941;53.254;6.600;2024-03-17T09:41:48;6.82;;;2.80;;
51836;SDS011;38941;53.254;6.600;2024-03-17T09:43:49;7.07;;;2.22;;
51836;SDS011;38941;53.254;6.600;2024-03-17T09:45:53;8.07;;;2.92;;
51836;SDS011;38941;53.254;6.600;2024-03-17T09:47:57;13.15;;;2.83;;
51836;SDS011;38941;53.254;6.600;2024-03-17T09:49:58;9.43;;;3.45;;
51836;SDS011;38941;53.254;6.600;2024-03-17T09:51:59;17.75;;;4.68;;
51836;SDS011;38941;53.254;6.600;2024-03-17T09:54:00;11.82;;;2.63;;
51836;SDS011;38941;53.254;6.600;2024-03-17T09:58:17;7.45;;;3.30;;
51836;SDS011;38941;53.254;6.600;2024-03-17T10:00:18;6.45;;;3.13;;
51836;SDS011;38941;53.254;6.600;2024-03-17T10:02:19;10.05;;;3.28;;
51836;SDS011;38941;53.254;6.600;2024-03-17T10:04:41;11.75;;;3.22;;
51836;SDS011;38941;53.254;6.600;2024-03-17T10:06:46;10.68;;;3.03;;
51836;SDS011;38941;53.254;6.600;2024-03-17T10:08:54;11.45;;;4.28;;
51836;SDS011;38941;53.254;6.600;2024-03-17T10:10:55;10.10;;;3.80;;
51836;SDS011;38941;53.254;6.600;2024-03-17T10:12:56;10.30;;;4.22;;
51836;SDS011;38941;53.254;6.600;2024-03-17T10:15:00;11.00;;;4.15;;
51836;SDS011;38941;53.254;6.600;2024-03-17T10:17:02;11.82;;;4.07;;
51836;SDS011;38941;53.254;6.600;2024-03-17T10:19:09;9.63;;;4.50;;
51836;SDS011;38941;53.254;6.600;2024-03-17T10:21:24;12.23;;;3.80;;
51836;SDS011;38941;53.254;6.600;2024-03-17T10:23:27;19.95;;;4.47;;
51836;SDS011;38941;53.254;6.600;2024-03-17T10:25:28;13.10;;;3.97;;
51836;SDS011;38941;53.254;6.600;2024-03-17T10:27:31;9.18;;;4.10;;
51836;SDS011;38941;53.254;6.600;2024-03-17T10:29:32;8.30;;;3.38;;
51836;SDS011;38941;53.254;6.600;2024-03-17T10:31:40;10.00;;;3.63;;
51836;SDS011;38941;53.254;6.600;2024-03-17T10:33:41;11.90;;;4.47;;
51836;SDS011;38941;53.254;6.600;2024-03-17T10:35:43;15.57;;;4.65;;
51836;SDS011;38941;53.254;6.600;2024-03-17T10:38:03;13.93;;;4.47;;
51836;SDS011;38941;53.254;6.600;2024-03-17T10:40:05;11.57;;;3.78;;
51836;SDS011;38941;53.254;6.600;2024-03-17T10:42:12;10.48;;;4.07;;
51836;SDS011;38941;53.254;6.600;2024-03-17T10:44:17;8.55;;;3.28;;
51836;SDS011;38941;53.254;6.600;2024-03-17T10:46:18;6.50;;;3.45;;
51836;SDS011;38941;53.254;6.600;2024-03-17T10:48:21;6.85;;;3.50;;
51836;SDS011;38941;53.254;6.600;2024-03-17T10:50:32;13.85;;;4.63;;
51836;SDS011;38941;53.254;6.600;2024-03-17T10:52:41;7.93;;;3.90;;
51836;SDS011;38941;53.254;6.600;2024-03-17T10:54:50;11.18;;;3.97;;
51836;SDS011;38941;53.254;6.600;2024-03-17T10:56:55;10.15;;;4.10;;
51836;SDS011;38941;53.254;6.600;2024-03-17T10:58:57;9.75;;;3.70;;
51836;SDS011;38941;53.254;6.600;2024-03-17T11:01:03;9.65;;;4.55;;
51836;SDS011;38941;53.254;6.600;2024-03-17T11:03:04;11.88;;;3.80;;
51836;SDS011;38941;53.254;6.600;2024-03-17T11:05:15;10.10;;;3.75;;
51836;SDS011;38941;53.254;6.600;2024-03-17T11:07:17;8.93;;;3.90;;
51836;SDS011;38941;53.254;6.600;2024-03-17T11:09:19;10.05;;;3.85;;
51836;SDS011;38941;53.254;6.600;2024-03-17T11:11:34;8.82;;;4.00;;
51836;SDS011;38941;53.254;6.600;2024-03-17T11:13:39;9.18;;;4.45;;
51836;SDS011;38941;53.254;6.600;2024-03-17T11:15:40;10.10;;;4.20;;
51836;SDS011;38941;53.254;6.600;2024-03-17T11:17:41;10.40;;;4.20;;
51836;SDS011;38941;53.254;6.600;2024-03-17T11:19:42;12.63;;;4.35;;
51836;SDS011;38941;53.254;6.600;2024-03-17T11:21:43;8.52;;;3.53;;
51836;SDS011;38941;53.254;6.600;2024-03-17T11:23:44;11.68;;;4.20;;
51836;SDS011;38941;53.254;6.600;2024-03-17T11:26:00;11.48;;;4.45;;
51836;SDS011;38941;53.254;6.600;2024-03-17T11:28:01;11.88;;;3.95;;
51836;SDS011;38941;53.254;6.600;2024-03-17T11:32:54;9.88;;;4.00;;
51836;SDS011;38941;53.254;6.600;2024-03-17T11:35:12;9.10;;;4.63;;
51836;SDS011;38941;53.254;6.600;2024-03-17T11:37:40;8.50;;;3.97;;
51836;SDS011;38941;53.254;6.600;2024-03-17T11:39:46;7.90;;;4.18;;
51836;SDS011;38941;53.254;6.600;2024-03-17T11:41:55;7.40;;;3.90;;
51836;SDS011;38941;53.254;6.600;2024-03-17T11:44:24;11.75;;;4.93;;
51836;SDS011;38941;53.254;6.600;2024-03-17T11:46:30;12.18;;;4.50;;
51836;SDS011;38941;53.254;6.600;2024-03-17T11:48:31;8.77;;;4.35;;
51836;SDS011;38941;53.254;6.600;2024-03-17T11:50:31;15.15;;;4.97;;
51836;SDS011;38941;53.254;6.600;2024-03-17T11:52:32;8.25;;;4.57;;
51836;SDS011;38941;53.254;6.600;2024-03-17T11:54:34;9.77;;;5.13;;
51836;SDS011;38941;53.254;6.600;2024-03-17T11:56:35;10.18;;;4.80;;
51836;SDS011;38941;53.254;6.600;2024-03-17T11:58:36;8.43;;;4.88;;
51836;SDS011;38941;53.254;6.600;2024-03-17T12:00:40;10.95;;;4.97;;
51836;SDS011;38941;53.254;6.600;2024-03-17T12:02:41;10.93;;;5.22;;
51836;SDS011;38941;53.254;6.600;2024-03-17T12:04:42;10.75;;;4.65;;
51836;SDS011;38941;53.254;6.600;2024-03-17T12:06:45;10.05;;;4.70;;
51836;SDS011;38941;53.254;6.600;2024-03-17T12:08:54;10.35;;;4.82;;
51836;SDS011;38941;53.254;6.600;2024-03-17T12:11:15;11.60;;;5.35;;
51836;SDS011;38941;53.254;6.600;2024-03-17T12:13:19;13.93;;;5.22;;
51836;SDS011;38941;53.254;6.600;2024-03-17T12:15:20;12.45;;;5.32;;
51836;SDS011;38941;53.254;6.600;2024-03-17T12:17:22;13.35;;;5.68;;
51836;SDS011;38941;53.254;6.600;2024-03-17T12:19:24;7.55;;;4.85;;
51836;SDS011;38941;53.254;6.600;2024-03-17T12:21:26;10.23;;;5.82;;